sensor_id;sensor_type;location;lat;lon;timestamp;pressure;altitude;pressure_sealevel;temperature;humidity
55189;BME280;41069;52.192;5.398;2023-01-31T00:01:09;102414.44;;;16.36;59.43
55189;BME280;41069;52.192;5.398;2023-01-31T00:03:36;102416.44;;;16.35;59.44
55189;BME280;41069;52.192;5.398;2023-01-31T00:06:09;102424.84;;;16.35;59.65
55189;BME280;41069;52.192;5.398;2023-01-31T00:08:35;102416.81;;;16.34;59.44
55189;BME280;41069;52.192;5.398;2023-01-31T00:11:13;102414.81;;;16.34;59.58
55189;BME280;41069;52.192;5.398;2023-01-31T00:13:39;102416.81;;;16.34;59.34
55189;BME280;41069;52.192;5.398;2023-01-31T00:16:05;102418.44;;;16.31;59.38
55189;BME280;41069;52.192;5.398;2023-01-31T00:18:45;102406.47;;;16.31;59.29
55189;BME280;41069;52.192;5.398;2023-01-31T00:21:12;102403.66;;;16.31;59.42
55189;BME280;41069;52.192;5.398;2023-01-31T00:23:38;102394.47;;;16.30;59.44
55189;BME280;41069;52.192;5.398;2023-01-31T00:31:22;102370.94;;;16.28;59.23
55189;BME280;41069;52.192;5.398;2023-01-31T00:33:58;102366.94;;;16.29;59.09
55189;BME280;41069;52.192;5.398;2023-01-31T00:36:27;102375.72;;;16.27;59.25
55189;BME280;41069;52.192;5.398;2023-01-31T00:38:54;102364.53;;;16.31;59.10
55189;BME280;41069;52.192;5.398;2023-01-31T00:41:21;102350.16;;;16.29;58.89
55189;BME280;41069;52.192;5.398;2023-01-31T00:43:47;102347.78;;;16.27;59.08
55189;BME280;41069;52.192;5.398;2023-01-31T00:46:19;102346.19;;;16.26;59.08
55189;BME280;41069;52.192;5.398;2023-01-31T00:48:47;102360.97;;;16.27;58.99
55189;BME280;41069;52.192;5.398;2023-01-31T00:51:13;102350.97;;;16.26;59.15
55189;BME280;41069;52.192;5.398;2023-01-31T00:53:41;102352.97;;;16.25;59.14
55189;BME280;41069;52.192;5.398;2023-01-31T00:56:08;102345.81;;;16.24;59.06
55189;BME280;41069;52.192;5.398;2023-01-31T00:58:33;102345.81;;;16.24;58.98
55189;BME280;41069;52.192;5.398;2023-01-31T01:03:48;102352.19;;;16.21;59.08
55189;BME280;41069;52.192;5.398;2023-01-31T01:06:16;102346.97;;;16.23;58.84
55189;BME280;41069;52.192;5.398;2023-01-31T01:08:42;102352.19;;;16.21;58.83
55189;BME280;41069;52.192;5.398;2023-01-31T01:11:18;102345.78;;;16.21;58.78
55189;BME280;41069;52.192;5.398;2023-01-31T01:13:44;102335.41;;;16.21;58.76
55189;BME280;41069;52.192;5.398;2023-01-31T01:16:24;102338.22;;;16.18;58.94
55189;BME280;41069;52.192;5.398;2023-01-31T01:18:56;102328.22;;;16.20;59.18
55189;BME280;41069;52.192;5.398;2023-01-31T01:26:59;102321.88;;;16.16;58.87
55189;BME280;41069;52.192;5.398;2023-01-31T01:29:25;102330.25;;;16.16;58.75
55189;BME280;41069;52.192;5.398;2023-01-31T01:32:02;102327.44;;;16.16;58.62
55189;BME280;41069;52.192;5.398;2023-01-31T01:34:37;102328.66;;;16.15;58.84
55189;BME280;41069;52.192;5.398;2023-01-31T01:37:02;102331.44;;;16.15;58.56
55189;BME280;41069;52.192;5.398;2023-01-31T01:39:28;102330.66;;;16.15;58.71
55189;BME280;41069;52.192;5.398;2023-01-31T01:42:11;102336.66;;;16.13;58.81
55189;BME280;41069;52.192;5.398;2023-01-31T01:50:01;102339.41;;;16.24;58.31
55189;BME280;41069;52.192;5.398;2023-01-31T01:52:28;102340.19;;;16.28;58.13
55189;BME280;41069;52.192;5.398;2023-01-31T01:55:03;102342.16;;;16.31;57.84
55189;BME280;41069;52.192;5.398;2023-01-31T02:02:51;102339.72;;;16.40;57.59
55189;BME280;41069;52.192;5.398;2023-01-31T02:05:30;102349.72;;;16.41;57.63
55189;BME280;41069;52.192;5.398;2023-01-31T02:07:56;102338.50;;;16.45;57.62
55189;BME280;41069;52.192;5.398;2023-01-31T02:10:27;102338.88;;;16.47;57.71
55189;BME280;41069;52.192;5.398;2023-01-31T02:12:54;102340.88;;;16.46;57.52
55189;BME280;41069;52.192;5.398;2023-01-31T02:15:20;102335.69;;;16.48;57.28
55189;BME280;41069;52.192;5.398;2023-01-31T02:17:46;102343.66;;;16.53;57.39
55189;BME280;41069;52.192;5.398;2023-01-31T02:20:23;102342.84;;;16.53;57.39
55189;BME280;41069;52.192;5.398;2023-01-31T02:44:20;102305.22;;;16.64;56.96
55189;BME280;41069;52.192;5.398;2023-01-31T02:46:56;102306.41;;;16.67;56.79
55189;BME280;41069;52.192;5.398;2023-01-31T02:49:29;102304.44;;;16.67;56.80
55189;BME280;41069;52.192;5.398;2023-01-31T02:55:21;102303.22;;;16.68;56.60
55189;BME280;41069;52.192;5.398;2023-01-31T02:57:50;102302.81;;;16.66;56.53
55189;BME280;41069;52.192;5.398;2023-01-31T03:00:17;102304.81;;;16.66;56.64
55189;BME280;41069;52.192;5.398;2023-01-31T03:02:46;102301.63;;;16.64;56.59
55189;BME280;41069;52.192;5.398;2023-01-31T03:05:15;102300.06;;;16.63;56.83
55189;BME280;41069;52.192;5.398;2023-01-31T03:07:42;102299.25;;;16.62;56.93
55189;BME280;41069;52.192;5.398;2023-01-31T03:18:18;102284.88;;;16.57;56.91
55189;BME280;41069;52.192;5.398;2023-01-31T03:20:57;102294.50;;;16.56;56.81
55189;BME280;41069;52.192;5.398;2023-01-31T03:23:25;102283.31;;;16.56;56.85
55189;BME280;41069;52.192;5.398;2023-01-31T03:25:51;102278.50;;;16.56;56.72
55189;BME280;41069;52.192;5.398;2023-01-31T03:28:19;102275.72;;;16.56;56.88
55189;BME280;41069;52.192;5.398;2023-01-31T03:33:44;102272.53;;;16.54;56.92
55189;BME280;41069;52.192;5.398;2023-01-31T03:41:27;102262.97;;;16.52;56.87
55189;BME280;41069;52.192;5.398;2023-01-31T03:44:16;102252.97;;;16.51;56.89
55189;BME280;41069;52.192;5.398;2023-01-31T03:46:45;102241.00;;;16.50;56.75
55189;BME280;41069;52.192;5.398;2023-01-31T03:49:16;102248.59;;;16.50;56.90
55189;BME280;41069;52.192;5.398;2023-01-31T03:51:53;102253.41;;;16.49;56.99
55189;BME280;41069;52.192;5.398;2023-01-31T03:54:23;102250.59;;;16.49;56.86
55189;BME280;41069;52.192;5.398;2023-01-31T03:59:39;102251.81;;;16.48;56.74
55189;BME280;41069;52.192;5.398;2023-01-31T04:02:15;102252.19;;;16.47;56.91
55189;BME280;41069;52.192;5.398;2023-01-31T04:04:55;102257.78;;;16.47;56.99
55189;BME280;41069;52.192;5.398;2023-01-31T04:07:23;102245.44;;;16.44;56.72
55189;BME280;41069;52.192;5.398;2023-01-31T04:09:54;102232.25;;;16.45;56.88
55189;BME280;41069;52.192;5.398;2023-01-31T04:12:19;102244.63;;;16.44;56.80
55189;BME280;41069;52.192;5.398;2023-01-31T04:14:45;102239.84;;;16.44;56.72
55189;BME280;41069;52.192;5.398;2023-01-31T04:17:11;102226.25;;;16.42;56.79
55189;BME280;41069;52.192;5.398;2023-01-31T04:19:38;102231.84;;;16.42;56.95
55189;BME280;41069;52.192;5.398;2023-01-31T04:22:03;102226.25;;;16.42;56.95
55189;BME280;41069;52.192;5.398;2023-01-31T04:24:31;102221.88;;;16.41;56.88
55189;BME280;41069;52.192;5.398;2023-01-31T04:26:57;102221.88;;;16.41;56.95
55189;BME280;41069;52.192;5.398;2023-01-31T04:31:51;102225.09;;;16.40;56.72
55189;BME280;41069;52.192;5.398;2023-01-31T04:34:17;102220.28;;;16.40;56.93
55189;BME280;41069;52.192;5.398;2023-01-31T04:36:49;102225.88;;;16.40;56.91
55189;BME280;41069;52.192;5.398;2023-01-31T04:39:14;102228.72;;;16.37;56.79
55189;BME280;41069;52.192;5.398;2023-01-31T04:41:40;102217.91;;;16.39;57.02
55189;BME280;41069;52.192;5.398;2023-01-31T04:44:06;102217.91;;;16.39;56.83
55189;BME280;41069;52.192;5.398;2023-01-31T04:46:31;102221.13;;;16.37;56.70
55189;BME280;41069;52.192;5.398;2023-01-31T04:49:03;102201.53;;;16.37;56.79
55189;BME280;41069;52.192;5.398;2023-01-31T04:51:29;102195.56;;;16.35;56.62
55189;BME280;41069;52.192;5.398;2023-01-31T04:53:55;102194.38;;;16.36;56.63
55189;BME280;41069;52.192;5.398;2023-01-31T04:56:37;102196.38;;;16.36;56.92
55189;BME280;41069;52.192;5.398;2023-01-31T04:59:02;102194.75;;;16.35;56.91
55189;BME280;41069;52.192;5.398;2023-01-31T05:01:37;102194.75;;;16.35;56.84
55189;BME280;41069;52.192;5.398;2023-01-31T05:04:12;102195.16;;;16.33;56.87
55189;BME280;41069;52.192;5.398;2023-01-31T05:06:40;102187.19;;;16.32;56.63
55189;BME280;41069;52.192;5.398;2023-01-31T05:09:09;102189.16;;;16.35;56.78
55189;BME280;41069;52.192;5.398;2023-01-31T05:14:27;102193.56;;;16.32;56.96
55189;BME280;41069;52.192;5.398;2023-01-31T05:16:52;102177.59;;;16.33;56.89
55189;BME280;41069;52.192;5.398;2023-01-31T05:19:19;102194.75;;;16.35;56.72
55189;BME280;41069;52.192;5.398;2023-01-31T05:21:45;102186.41;;;16.31;56.74
55189;BME280;41069;52.192;5.398;2023-01-31T05:24:10;102189.19;;;16.31;56.79
55189;BME280;41069;52.192;5.398;2023-01-31T05:26:36;102187.97;;;16.32;56.90
55189;BME280;41069;52.192;5.398;2023-01-31T05:29:02;102180.44;;;16.29;56.93
55189;BME280;41069;52.192;5.398;2023-01-31T05:31:27;102183.22;;;16.29;56.86
55189;BME280;41069;52.192;5.398;2023-01-31T05:33:56;102174.03;;;16.29;56.90
55189;BME280;41069;52.192;5.398;2023-01-31T05:36:21;102178.84;;;16.28;56.74
55189;BME280;41069;52.192;5.398;2023-01-31T05:38:47;102173.25;;;16.28;56.81
55189;BME280;41069;52.192;5.398;2023-01-31T05:41:13;102160.47;;;16.27;56.79
55189;BME280;41069;52.192;5.398;2023-01-31T05:46:26;102171.25;;;16.29;56.79
55189;BME280;41069;52.192;5.398;2023-01-31T05:48:52;102162.47;;;16.27;56.69
55189;BME280;41069;52.192;5.398;2023-01-31T05:51:18;102165.69;;;16.25;56.72
55189;BME280;41069;52.192;5.398;2023-01-31T05:53:44;102155.31;;;16.26;56.78
55189;BME280;41069;52.192;5.398;2023-01-31T05:56:09;102151.72;;;16.25;56.81
55189;BME280;41069;52.192;5.398;2023-01-31T05:58:35;102147.34;;;16.24;56.79
55189;BME280;41069;52.192;5.398;2023-01-31T06:01:01;102139.72;;;16.25;56.77
55189;BME280;41069;52.192;5.398;2023-01-31T06:03:33;102131.31;;;16.28;56.81
55189;BME280;41069;52.192;5.398;2023-01-31T06:05:58;102146.06;;;16.32;56.68
55189;BME280;41069;52.192;5.398;2023-01-31T06:08:24;102144.38;;;16.42;56.44
55189;BME280;41069;52.192;5.398;2023-01-31T06:11:00;102140.75;;;16.49;56.15
55189;BME280;41069;52.192;5.398;2023-01-31T06:13:25;102137.53;;;16.50;56.18
55189;BME280;41069;52.192;5.398;2023-01-31T06:15:51;102127.91;;;16.55;56.26
55189;BME280;41069;52.192;5.398;2023-01-31T06:18:29;102121.13;;;16.52;56.08
55189;BME280;41069;52.192;5.398;2023-01-31T06:20:55;102126.25;;;16.57;56.19
55189;BME280;41069;52.192;5.398;2023-01-31T06:23:29;102131.44;;;16.62;56.23
55189;BME280;41069;52.192;5.398;2023-01-31T06:25:54;102113.84;;;16.62;55.97
55189;BME280;41069;52.192;5.398;2023-01-31T06:28:25;102119.81;;;16.64;56.05
55189;BME280;41069;52.192;5.398;2023-01-31T06:30:51;102121.75;;;16.74;55.93
55189;BME280;41069;52.192;5.398;2023-01-31T06:33:24;102134.03;;;16.84;55.85
55189;BME280;41069;52.192;5.398;2023-01-31T06:38:41;102128.69;;;17.00;56.70
55189;BME280;41069;52.192;5.398;2023-01-31T06:41:09;102137.00;;;17.07;57.38
55189;BME280;41069;52.192;5.398;2023-01-31T06:43:34;102121.72;;;17.15;57.26
55189;BME280;41069;52.192;5.398;2023-01-31T06:46:03;102118.50;;;17.17;58.79
55189;BME280;41069;52.192;5.398;2023-01-31T06:51:09;102123.53;;;17.33;57.95
55189;BME280;41069;52.192;5.398;2023-01-31T06:53:35;102119.88;;;17.36;58.07
55189;BME280;41069;52.192;5.398;2023-01-31T06:58:51;102111.84;;;17.38;58.79
55189;BME280;41069;52.192;5.398;2023-01-31T07:01:17;102114.66;;;17.38;59.10
55189;BME280;41069;52.192;5.398;2023-01-31T07:03:42;102102.59;;;17.41;58.65
55189;BME280;41069;52.192;5.398;2023-01-31T07:06:08;102104.97;;;17.42;59.16
55189;BME280;41069;52.192;5.398;2023-01-31T07:08:43;102097.78;;;17.45;59.15
55189;BME280;41069;52.192;5.398;2023-01-31T07:11:09;102088.88;;;17.50;58.65
55189;BME280;41069;52.192;5.398;2023-01-31T07:13:38;102092.13;;;17.48;58.96
55189;BME280;41069;52.192;5.398;2023-01-31T07:16:04;102094.81;;;17.55;58.82
55189;BME280;41069;52.192;5.398;2023-01-31T07:18:31;102092.78;;;17.56;58.74
55189;BME280;41069;52.192;5.398;2023-01-31T07:20:57;102097.59;;;17.55;58.90
55189;BME280;41069;52.192;5.398;2023-01-31T07:23:23;102096.13;;;17.47;58.88
55189;BME280;41069;52.192;5.398;2023-01-31T07:26:01;102087.72;;;17.47;58.66
55189;BME280;41069;52.192;5.398;2023-01-31T07:28:27;102086.81;;;17.54;58.79
55189;BME280;41069;52.192;5.398;2023-01-31T07:30:53;102085.19;;;17.56;58.72
55189;BME280;41069;52.192;5.398;2023-01-31T07:33:19;102087.25;;;17.52;58.58
55189;BME280;41069;52.192;5.398;2023-01-31T07:35:47;102090.47;;;17.51;58.51
55189;BME280;41069;52.192;5.398;2023-01-31T07:38:16;102081.59;;;17.56;58.53
55189;BME280;41069;52.192;5.398;2023-01-31T07:40:41;102086.38;;;17.59;58.33
55189;BME280;41069;52.192;5.398;2023-01-31T07:43:08;102082.34;;;17.60;58.24
55189;BME280;41069;52.192;5.398;2023-01-31T07:45:34;102085.09;;;17.64;58.32
55189;BME280;41069;52.192;5.398;2023-01-31T07:48:14;102085.94;;;17.61;58.54
55189;BME280;41069;52.192;5.398;2023-01-31T07:50:40;102082.34;;;17.60;58.55
55189;BME280;41069;52.192;5.398;2023-01-31T07:53:15;102065.91;;;17.62;58.49
55189;BME280;41069;52.192;5.398;2023-01-31T07:58:26;102061.09;;;17.63;58.25
55189;BME280;41069;52.192;5.398;2023-01-31T08:00:52;102058.34;;;17.59;58.07
55189;BME280;41069;52.192;5.398;2023-01-31T08:03:22;102055.06;;;17.64;57.94
55189;BME280;41069;52.192;5.398;2023-01-31T08:05:48;102058.00;;;17.57;58.19
55189;BME280;41069;52.192;5.398;2023-01-31T08:08:14;102051.97;;;17.58;58.58
55189;BME280;41069;52.192;5.398;2023-01-31T08:10:40;102056.34;;;17.60;58.11
55189;BME280;41069;52.192;5.398;2023-01-31T08:13:05;102050.63;;;17.67;58.20
55189;BME280;41069;52.192;5.398;2023-01-31T08:15:32;102043.81;;;17.71;58.19
55189;BME280;41069;52.192;5.398;2023-01-31T08:17:58;102033.38;;;17.68;58.13
55189;BME280;41069;52.192;5.398;2023-01-31T08:20:34;102036.63;;;17.70;58.89
55189;BME280;41069;52.192;5.398;2023-01-31T08:22:59;102032.97;;;17.73;58.94
55189;BME280;41069;52.192;5.398;2023-01-31T08:25:34;102031.63;;;17.81;58.88
55189;BME280;41069;52.192;5.398;2023-01-31T08:28:00;102022.38;;;17.84;59.46
55189;BME280;41069;52.192;5.398;2023-01-31T08:30:25;102023.97;;;17.85;59.14
55189;BME280;41069;52.192;5.398;2023-01-31T08:33:00;102017.06;;;17.90;59.42
55189;BME280;41069;52.192;5.398;2023-01-31T08:35:31;102021.25;;;18.05;58.84
55189;BME280;41069;52.192;5.398;2023-01-31T08:37:57;102011.44;;;17.94;58.67
55189;BME280;41069;52.192;5.398;2023-01-31T08:40:23;102016.53;;;17.99;59.52
55189;BME280;41069;52.192;5.398;2023-01-31T08:42:55;102018.63;;;17.95;58.41
55189;BME280;41069;52.192;5.398;2023-01-31T08:45:21;102019.56;;;17.84;58.68
55189;BME280;41069;52.192;5.398;2023-01-31T08:47:59;102030.78;;;17.84;58.27
55189;BME280;41069;52.192;5.398;2023-01-31T08:50:28;102039.63;;;17.83;58.22
55189;BME280;41069;52.192;5.398;2023-01-31T08:52:54;102025.63;;;17.79;58.48
55189;BME280;41069;52.192;5.398;2023-01-31T08:55:21;102016.41;;;17.82;58.35
55189;BME280;41069;52.192;5.398;2023-01-31T08:57:47;102014.81;;;17.81;58.60
55189;BME280;41069;52.192;5.398;2023-01-31T09:00:21;102022.75;;;17.86;58.66
55189;BME280;41069;52.192;5.398;2023-01-31T09:02:50;102030.84;;;17.81;58.60
55189;BME280;41069;52.192;5.398;2023-01-31T09:05:16;102023.59;;;17.83;58.68
55189;BME280;41069;52.192;5.398;2023-01-31T09:07:44;102013.59;;;17.82;58.70
55189;BME280;41069;52.192;5.398;2023-01-31T09:10:17;102020.38;;;17.85;58.83
55189;BME280;41069;52.192;5.398;2023-01-31T09:12:43;102014.69;;;17.89;58.78
55189;BME280;41069;52.192;5.398;2023-01-31T09:15:14;102008.38;;;17.84;58.85
55189;BME280;41069;52.192;5.398;2023-01-31T09:17:40;102012.03;;;17.81;59.04
55189;BME280;41069;52.192;5.398;2023-01-31T09:20:06;102008.78;;;17.83;58.53
55189;BME280;41069;52.192;5.398;2023-01-31T09:22:32;102011.69;;;17.76;59.04
55189;BME280;41069;52.192;5.398;2023-01-31T09:27:52;102005.00;;;17.70;58.90
55189;BME280;41069;52.192;5.398;2023-01-31T09:30:17;102010.47;;;17.77;58.74
55189;BME280;41069;52.192;5.398;2023-01-31T09:32:43;102006.47;;;17.78;58.51
55189;BME280;41069;52.192;5.398;2023-01-31T09:35:13;101997.59;;;17.83;58.77
55189;BME280;41069;52.192;5.398;2023-01-31T09:37:44;102010.47;;;17.77;58.77
55189;BME280;41069;52.192;5.398;2023-01-31T09:40:10;101997.75;;;17.72;58.34
55189;BME280;41069;52.192;5.398;2023-01-31T09:47:58;102000.25;;;17.63;58.61
55189;BME280;41069;52.192;5.398;2023-01-31T09:50:44;101996.53;;;17.73;58.51
55189;BME280;41069;52.192;5.398;2023-01-31T09:53:14;101994.28;;;17.61;57.22
55189;BME280;41069;52.192;5.398;2023-01-31T09:59:13;101997.81;;;17.65;58.44
55189;BME280;41069;52.192;5.398;2023-01-31T10:04:07;101998.91;;;17.48;58.54
55189;BME280;41069;52.192;5.398;2023-01-31T10:09:18;101999.47;;;17.63;60.08
55189;BME280;41069;52.192;5.398;2023-01-31T10:11:49;102002.56;;;17.68;60.37
55189;BME280;41069;52.192;5.398;2023-01-31T10:27:46;101981.81;;;17.66;62.04
55189;BME280;41069;52.192;5.398;2023-01-31T10:30:20;101982.72;;;17.59;62.34
55189;BME280;41069;52.192;5.398;2023-01-31T10:32:50;101973.97;;;17.57;62.30
55189;BME280;41069;52.192;5.398;2023-01-31T10:35:27;101971.56;;;17.55;62.33
55189;BME280;41069;52.192;5.398;2023-01-31T10:38:10;101971.25;;;17.50;62.28
55189;BME280;41069;52.192;5.398;2023-01-31T10:40:39;101970.88;;;17.48;62.39
55189;BME280;41069;52.192;5.398;2023-01-31T10:43:17;101968.09;;;17.48;62.39
55189;BME280;41069;52.192;5.398;2023-01-31T10:45:44;101959.69;;;17.48;61.91
55189;BME280;41069;52.192;5.398;2023-01-31T10:48:20;101973.31;;;17.46;61.65
55189;BME280;41069;52.192;5.398;2023-01-31T10:58:46;101960.34;;;17.55;61.48
55189;BME280;41069;52.192;5.398;2023-01-31T11:03:56;101968.22;;;17.64;61.72
55189;BME280;41069;52.192;5.398;2023-01-31T11:06:27;101969.38;;;17.70;61.61
55189;BME280;41069;52.192;5.398;2023-01-31T11:08:54;101969.38;;;17.70;61.71
55189;BME280;41069;52.192;5.398;2023-01-31T11:11:22;101969.03;;;17.65;61.59
55189;BME280;41069;52.192;5.398;2023-01-31T11:13:58;101980.59;;;17.67;61.91
55189;BME280;41069;52.192;5.398;2023-01-31T11:16:27;101974.97;;;17.70;61.07
55189;BME280;41069;52.192;5.398;2023-01-31T11:18:59;101979.78;;;17.66;61.51
55189;BME280;41069;52.192;5.398;2023-01-31T11:21:26;101978.22;;;17.65;61.13
55189;BME280;41069;52.192;5.398;2023-01-31T11:24:14;101965.16;;;17.55;61.38
55189;BME280;41069;52.192;5.398;2023-01-31T11:29:28;101963.16;;;17.55;61.14
55189;BME280;41069;52.192;5.398;2023-01-31T11:32:00;101950.38;;;17.54;61.00
55189;BME280;41069;52.192;5.398;2023-01-31T11:34:30;101961.94;;;17.56;61.25
55189;BME280;41069;52.192;5.398;2023-01-31T11:37:15;101946.78;;;17.54;60.86
55189;BME280;41069;52.192;5.398;2023-01-31T11:39:41;101947.94;;;17.56;61.21
55189;BME280;41069;52.192;5.398;2023-01-31T11:42:19;101945.97;;;17.53;61.21
55189;BME280;41069;52.192;5.398;2023-01-31T11:45:03;101945.56;;;17.55;61.11
55189;BME280;41069;52.192;5.398;2023-01-31T11:47:40;101940.75;;;17.55;61.13
55189;BME280;41069;52.192;5.398;2023-01-31T11:50:14;101939.13;;;17.58;60.75
55189;BME280;41069;52.192;5.398;2023-01-31T11:52:46;101942.75;;;17.55;60.79
55189;BME280;41069;52.192;5.398;2023-01-31T11:55:18;101932.72;;;17.57;60.97
55189;BME280;41069;52.192;5.398;2023-01-31T11:57:43;101925.53;;;17.56;60.89
55189;BME280;41069;52.192;5.398;2023-01-31T12:00:21;101937.94;;;17.55;60.99
55189;BME280;41069;52.192;5.398;2023-01-31T12:03:00;101938.28;;;17.61;60.57
55189;BME280;41069;52.192;5.398;2023-01-31T12:05:36;101935.13;;;17.55;60.46
55189;BME280;41069;52.192;5.398;2023-01-31T12:08:18;101925.16;;;17.54;60.64
55189;BME280;41069;52.192;5.398;2023-01-31T12:10:51;101924.38;;;17.54;60.97
55189;BME280;41069;52.192;5.398;2023-01-31T12:13:17;101923.91;;;17.59;60.65
55189;BME280;41069;52.192;5.398;2023-01-31T12:20:53;101914.19;;;17.40;60.75
55189;BME280;41069;52.192;5.398;2023-01-31T12:26:07;101892.13;;;17.46;60.99
55189;BME280;41069;52.192;5.398;2023-01-31T12:28:40;101909.56;;;17.53;60.65
55189;BME280;41069;52.192;5.398;2023-01-31T12:31:17;101912.81;;;17.52;60.62
55189;BME280;41069;52.192;5.398;2023-01-31T12:33:57;101907.56;;;17.54;60.77
55189;BME280;41069;52.192;5.398;2023-01-31T12:39:32;101892.41;;;17.51;60.75
55189;BME280;41069;52.192;5.398;2023-01-31T12:44:44;101883.72;;;17.46;60.35
55189;BME280;41069;52.192;5.398;2023-01-31T12:50:30;101884.88;;;17.48;60.54
55189;BME280;41069;52.192;5.398;2023-01-31T12:56:09;101870.53;;;17.43;60.25
55189;BME280;41069;52.192;5.398;2023-01-31T12:59:02;101868.06;;;17.48;60.21
55189;BME280;41069;52.192;5.398;2023-01-31T13:07:44;101850.31;;;17.55;60.13
55189;BME280;41069;52.192;5.398;2023-01-31T13:10:38;101857.22;;;17.50;59.99
55189;BME280;41069;52.192;5.398;2023-01-31T13:13:09;101868.00;;;17.52;59.85
55189;BME280;41069;52.192;5.398;2023-01-31T13:15:52;101861.53;;;17.55;60.00
55189;BME280;41069;52.192;5.398;2023-01-31T13:18:24;101856.50;;;17.46;60.29
55189;BME280;41069;52.192;5.398;2023-01-31T13:23:23;101860.50;;;17.45;59.98
55189;BME280;41069;52.192;5.398;2023-01-31T13:31:24;101857.47;;;17.36;59.96
55189;BME280;41069;52.192;5.398;2023-01-31T13:34:04;101852.91;;;17.46;60.23
55189;BME280;41069;52.192;5.398;2023-01-31T13:39:11;101859.28;;;17.46;60.25
55189;BME280;41069;52.192;5.398;2023-01-31T13:41:55;101861.97;;;17.53;60.19
55189;BME280;41069;52.192;5.398;2023-01-31T13:44:24;101870.78;;;17.52;60.22
55189;BME280;41069;52.192;5.398;2023-01-31T13:49:35;101883.94;;;17.55;60.61
55189;BME280;41069;52.192;5.398;2023-01-31T13:52:04;101885.16;;;17.54;61.01
55189;BME280;41069;52.192;5.398;2023-01-31T13:54:52;101891.44;;;17.62;60.34
55189;BME280;41069;52.192;5.398;2023-01-31T13:59:53;101899.94;;;17.54;61.13
55189;BME280;41069;52.192;5.398;2023-01-31T14:02:20;101906.31;;;17.58;60.73
55189;BME280;41069;52.192;5.398;2023-01-31T14:04:50;101911.13;;;17.58;60.63
55189;BME280;41069;52.192;5.398;2023-01-31T14:07:17;101915.94;;;17.57;60.43
55189;BME280;41069;52.192;5.398;2023-01-31T14:14:44;101928.66;;;17.62;61.34
55189;BME280;41069;52.192;5.398;2023-01-31T14:17:11;101936.13;;;17.72;60.92
55189;BME280;41069;52.192;5.398;2023-01-31T14:22:19;101934.59;;;17.64;61.13
55189;BME280;41069;52.192;5.398;2023-01-31T14:29:43;101931.69;;;17.48;61.14
55189;BME280;41069;52.192;5.398;2023-01-31T14:32:13;101939.50;;;17.60;60.71
55189;BME280;41069;52.192;5.398;2023-01-31T14:34:40;101941.50;;;17.60;60.85
55189;BME280;41069;52.192;5.398;2023-01-31T14:42:53;101932.09;;;17.46;61.24
55189;BME280;41069;52.192;5.398;2023-01-31T14:48:19;101946.94;;;17.43;61.18
55189;BME280;41069;52.192;5.398;2023-01-31T14:50:55;101944.47;;;17.49;61.02
55189;BME280;41069;52.192;5.398;2023-01-31T14:58:47;101953.53;;;17.56;61.03
55189;BME280;41069;52.192;5.398;2023-01-31T15:01:14;101949.47;;;17.61;61.52
55189;BME280;41069;52.192;5.398;2023-01-31T15:03:52;101954.94;;;17.68;61.31
55189;BME280;41069;52.192;5.398;2023-01-31T15:09:25;101955.38;;;17.67;61.11
55189;BME280;41069;52.192;5.398;2023-01-31T15:12:11;101956.66;;;17.62;61.58
55189;BME280;41069;52.192;5.398;2023-01-31T15:14:50;101955.81;;;17.65;61.71
55189;BME280;41069;52.192;5.398;2023-01-31T15:17:20;101960.25;;;17.63;61.47
55189;BME280;41069;52.192;5.398;2023-01-31T15:22:36;101960.78;;;17.54;61.45
55189;BME280;41069;52.192;5.398;2023-01-31T15:27:57;101963.94;;;17.56;61.45
55189;BME280;41069;52.192;5.398;2023-01-31T15:30:24;101962.75;;;17.57;61.47
55189;BME280;41069;52.192;5.398;2023-01-31T15:35:25;101969.16;;;17.57;61.95
55189;BME280;41069;52.192;5.398;2023-01-31T15:38:11;101985.03;;;17.37;58.95
55189;BME280;41069;52.192;5.398;2023-01-31T15:40:43;101987.69;;;17.21;61.30
55189;BME280;41069;52.192;5.398;2023-01-31T15:45:58;101988.50;;;17.48;60.92
55189;BME280;41069;52.192;5.398;2023-01-31T15:48:55;101988.50;;;17.48;60.96
55189;BME280;41069;52.192;5.398;2023-01-31T15:51:21;101983.34;;;17.43;61.03
55189;BME280;41069;52.192;5.398;2023-01-31T15:53:47;101977.72;;;17.47;61.01
55189;BME280;41069;52.192;5.398;2023-01-31T15:56:17;101981.34;;;17.44;61.44
55189;BME280;41069;52.192;5.398;2023-01-31T15:58:45;101979.47;;;17.07;59.45
55189;BME280;41069;52.192;5.398;2023-01-31T16:01:12;101987.94;;;17.30;60.53
55189;BME280;41069;52.192;5.398;2023-01-31T16:03:39;101992.16;;;17.42;60.44
55189;BME280;41069;52.192;5.398;2023-01-31T16:06:12;101996.47;;;17.50;60.12
55189;BME280;41069;52.192;5.398;2023-01-31T16:08:49;102014.41;;;17.52;60.48
55189;BME280;41069;52.192;5.398;2023-01-31T16:11:17;102009.63;;;17.53;60.51
55189;BME280;41069;52.192;5.398;2023-01-31T16:16:33;102027.34;;;17.73;60.70
55189;BME280;41069;52.192;5.398;2023-01-31T16:19:12;102031.78;;;17.98;60.56
55189;BME280;41069;52.192;5.398;2023-01-31T16:21:43;102044.06;;;18.04;61.03
55189;BME280;41069;52.192;5.398;2023-01-31T16:24:18;102043.16;;;18.10;61.33
55189;BME280;41069;52.192;5.398;2023-01-31T16:26:56;102043.97;;;18.11;61.76
55189;BME280;41069;52.192;5.398;2023-01-31T16:29:23;102044.84;;;18.04;61.39
55189;BME280;41069;52.192;5.398;2023-01-31T16:31:51;102050.59;;;17.97;61.41
55189;BME280;41069;52.192;5.398;2023-01-31T16:34:38;102050.06;;;17.79;61.00
55189;BME280;41069;52.192;5.398;2023-01-31T16:37:05;102044.38;;;17.86;61.32
55189;BME280;41069;52.192;5.398;2023-01-31T16:39:42;102042.78;;;17.85;61.04
55189;BME280;41069;52.192;5.398;2023-01-31T16:44:43;102042.06;;;17.81;61.65